Oostburg, Wisconsin
Current Conditions -  °F | °C
As of 7:42 AM on Friday 28 Nov 2014 (Local Time) from KSBM Reporting Station
Light Snow Light Snow  
Wind Chill: -10°   Ceiling: 4000
Heat Index: -10°   Visibility: 1.7mi
Dew Point: -13°   Wind: 3mph
Humidity: 77%   Direction: 140°SE
Pressure: 30.23"   Gusts: NA
Location:  43.62°N, 87.79°W
Report Text: KSBM 281342Z AUTO 14003KT 1 3/4SM -SN OVC040 M10/M13 A3023 RMK AO2 P0000 T11001133
Loading
Personal Weather Stations






























Interactive Weather Map New forecast layout! Learn more

10-Day Weather Forecast

Advertisements
Track Severe Weather on mobile